Terminal Aerodrome Forecast
Issued by NWS Lake Charles, LA

Home | Current Version | Previous Version | Text Only | Print | Product List | Glossary On
Versions: 1 2 3 4 5 6 7 8 9 10 11 12 13 14
000
FTUS44 KLCH 301120
TAFBPT
TAF
KBPT 301120Z 3012/3112 30006KT P6SM FEW030
     FM301600 02006KT P6SM VCTS SCT040CB
     FM302000 13005KT P6SM VCTS SCT040CB
     FM310300 32003KT P6SM SCT050=

USA.gov is the U.S. government's official web portal to all federal, state and local government web resources and services.